createdAt,value
2018-04-23T00:00:00.050Z,33.20
2018-04-23T00:01:00.042Z,34.60
2018-04-23T00:02:00.031Z,33.80
2018-04-23T00:03:00.010Z,35.50
2018-04-23T00:04:00.000Z,34.90
2018-04-23T00:04:59.990Z,35.40
2018-04-23T00:05:59.978Z,34.60
2018-04-23T00:06:59.967Z,34.80
2018-04-23T00:07:59.954Z,36.10
2018-04-23T00:08:59.942Z,35.70
2018-04-23T00:09:59.931Z,33.10
2018-04-23T00:10:59.917Z,34.20
2018-04-23T00:11:59.911Z,36.50
2018-04-23T00:12:59.898Z,36.40
2018-04-23T00:13:59.882Z,36.20
2018-04-23T00:14:59.872Z,36.40
2018-04-23T00:15:59.858Z,37.60
2018-04-23T00:16:59.846Z,37.10
2018-04-23T00:17:59.833Z,37.10
2018-04-23T00:18:59.819Z,37.60
2018-04-23T00:19:59.812Z,36.70
2018-04-23T00:20:59.801Z,34.60
2018-04-23T00:21:59.785Z,31.20
2018-04-23T00:22:59.806Z,30.40
2018-04-23T00:23:59.762Z,26.60
2018-04-23T00:24:59.756Z,27.80
2018-04-23T00:25:59.737Z,28.90
2018-04-23T00:26:59.728Z,27.30
2018-04-23T00:27:59.711Z,28.70
2018-04-23T00:28:59.702Z,29.30
2018-04-23T00:29:59.690Z,30.60
2018-04-23T00:30:59.680Z,29.00
2018-04-23T00:31:59.663Z,28.70
2018-04-23T00:32:59.658Z,27.80
2018-04-23T00:33:59.643Z,27.10
2018-04-23T00:34:59.627Z,24.90
2018-04-23T00:35:59.620Z,24.10
2018-04-23T00:36:59.604Z,23.10
2018-04-23T00:37:59.595Z,21.50
2018-04-23T00:38:59.580Z,21.30
2018-04-23T00:39:59.574Z,22.10
2018-04-23T00:40:59.555Z,21.20
2018-04-23T00:41:59.549Z,22.30
2018-04-23T00:42:59.530Z,21.70
2018-04-23T00:43:59.519Z,23.20
2018-04-23T00:44:59.511Z,20.70
2018-04-23T00:45:59.499Z,21.70
2018-04-23T00:46:59.532Z,21.30
2018-04-23T00:47:59.470Z,22.20
2018-04-23T00:48:59.489Z,20.60
2018-04-23T00:49:59.447Z,21.40
2018-04-23T00:50:59.489Z,21.30
2018-04-23T00:51:59.430Z,22.70
2018-04-23T00:52:59.468Z,22.40
2018-04-23T00:53:59.397Z,23.10
2018-04-23T00:54:59.434Z,22.00
2018-04-23T00:55:59.377Z,21.90
2018-04-23T00:56:59.362Z,22.50
2018-04-23T00:57:59.354Z,23.20
2018-04-23T00:58:59.384Z,24.30
2018-04-23T00:59:59.322Z,26.20
2018-04-23T01:00:59.312Z,26.30
2018-04-23T01:01:59.300Z,25.50
2018-04-23T01:02:59.285Z,26.30
2018-04-23T01:03:59.278Z,25.80
2018-04-23T01:04:59.262Z,27.90
2018-04-23T01:05:59.251Z,27.70
2018-04-23T01:06:59.236Z,28.10
2018-04-23T01:07:59.221Z,28.80
2018-04-23T01:08:59.213Z,28.10
2018-04-23T01:09:59.197Z,28.70
2018-04-23T01:10:59.188Z,29.30
2018-04-23T01:11:59.176Z,29.10
2018-04-23T01:12:59.160Z,29.00
2018-04-23T01:13:59.151Z,28.20
2018-04-23T01:14:59.137Z,29.00
2018-04-23T01:15:59.128Z,29.20
2018-04-23T01:16:59.113Z,30.20
2018-04-23T01:17:59.102Z,30.60
2018-04-23T01:18:59.090Z,28.20
2018-04-23T01:19:59.080Z,31.20
2018-04-23T01:20:59.067Z,31.90
2018-04-23T01:21:59.057Z,31.40
2018-04-23T01:22:59.041Z,31.40
2018-04-23T01:23:59.026Z,32.30
2018-04-23T01:24:59.018Z,31.90
2018-04-23T01:25:59.004Z,32.40
2018-04-23T01:26:58.990Z,32.00
2018-04-23T01:27:58.982Z,32.00
2018-04-23T01:28:58.965Z,31.70
2018-04-23T01:29:58.956Z,32.30
2018-04-23T01:30:58.941Z,32.70
2018-04-23T01:31:58.930Z,32.80
2018-04-23T01:32:58.917Z,32.20
2018-04-23T01:33:58.908Z,33.40
2018-04-23T01:34:58.895Z,33.70
2018-04-23T01:35:58.880Z,32.30
2018-04-23T01:36:58.870Z,32.60
2018-04-23T01:37:58.855Z,33.50
2018-04-23T01:38:58.848Z,34.00
2018-04-23T01:39:58.835Z,33.80
2018-04-23T01:40:58.821Z,34.40
2018-04-23T01:41:58.820Z,33.10
2018-04-23T01:42:58.794Z,35.70
2018-04-23T01:43:58.838Z,34.60
2018-04-23T01:44:58.776Z,36.30
2018-04-23T01:45:58.785Z,36.10
2018-04-23T01:46:58.749Z,35.70
2018-04-23T01:47:58.740Z,36.10
2018-04-23T01:48:58.721Z,37.20
2018-04-23T01:49:58.720Z,36.80
2018-04-23T01:50:58.699Z,38.10
2018-04-23T01:51:58.685Z,37.30
2018-04-23T01:52:58.676Z,37.70
2018-04-23T01:53:58.671Z,38.20
2018-04-23T01:54:58.648Z,38.50
2018-04-23T01:55:58.639Z,37.50
2018-04-23T01:56:58.630Z,37.90
2018-04-23T01:57:58.619Z,38.00
2018-04-23T01:58:58.600Z,37.90
2018-04-23T01:59:58.590Z,38.70
2018-04-23T02:00:58.580Z,37.40
2018-04-23T02:01:58.569Z,39.10
2018-04-23T02:02:58.550Z,38.70
2018-04-23T02:03:58.539Z,38.30
2018-04-23T02:04:58.534Z,38.80
2018-04-23T02:05:58.521Z,39.30
2018-04-23T02:06:58.501Z,37.40
2018-04-23T02:07:58.489Z,39.50
2018-04-23T02:08:58.482Z,39.40
2018-04-23T02:09:58.470Z,39.20
2018-04-23T02:10:58.483Z,38.90
2018-04-23T02:11:58.437Z,39.70
2018-04-23T02:12:58.429Z,38.60
2018-04-23T02:13:58.416Z,38.80
2018-04-23T02:14:58.400Z,37.50
2018-04-23T02:15:58.390Z,38.70
2018-04-23T02:16:58.382Z,38.00
2018-04-23T02:17:58.377Z,39.90
2018-04-23T02:18:58.355Z,39.00
2018-04-23T02:19:58.341Z,39.20
2018-04-23T02:20:58.328Z,39.10
2018-04-23T02:21:58.316Z,40.00
2018-04-23T02:22:58.306Z,39.60
2018-04-23T02:23:58.299Z,39.20
2018-04-23T02:24:58.281Z,38.60
2018-04-23T02:25:58.270Z,39.20
2018-04-23T02:26:58.256Z,39.80
2018-04-23T02:27:58.244Z,39.40
2018-04-23T02:28:58.230Z,38.90
2018-04-23T02:29:58.223Z,38.80
2018-04-23T02:30:58.208Z,41.50
2018-04-23T02:31:58.198Z,40.00
2018-04-23T02:32:58.184Z,40.40
2018-04-23T02:33:58.170Z,40.00
2018-04-23T02:34:58.168Z,40.50
2018-04-23T02:35:58.150Z,40.50
2018-04-23T02:36:58.130Z,41.70
2018-04-23T02:37:58.120Z,42.20
2018-04-23T02:38:58.136Z,43.30
2018-04-23T02:39:58.093Z,41.70
2018-04-23T02:40:58.095Z,42.60
2018-04-23T02:41:58.072Z,42.80
2018-04-23T02:42:58.061Z,43.70
2018-04-23T02:43:58.049Z,43.40
2018-04-23T02:44:58.033Z,43.20
2018-04-23T02:45:58.034Z,44.20
2018-04-23T02:46:58.009Z,45.80
2018-04-23T02:47:58.004Z,45.00
2018-04-23T02:48:57.983Z,45.10
2018-04-23T02:49:57.974Z,44.40
2018-04-23T02:50:57.960Z,45.60
2018-04-23T02:51:57.951Z,45.60
2018-04-23T02:52:57.940Z,46.00
2018-04-23T02:53:57.922Z,46.40
2018-04-23T02:54:57.922Z,46.60
2018-04-23T02:55:57.901Z,45.90
2018-04-23T02:56:57.890Z,46.50
2018-04-23T02:57:57.871Z,46.10
2018-04-23T02:58:57.861Z,47.20
2018-04-23T02:59:57.848Z,47.00
2018-04-23T03:00:57.846Z,47.80
2018-04-23T03:01:57.818Z,47.80
2018-04-23T03:02:57.957Z,48.20
2018-04-23T03:03:57.802Z,46.90
2018-04-23T03:04:57.886Z,49.00
2018-04-23T03:05:57.771Z,48.70
2018-04-23T03:06:57.756Z,49.00
2018-04-23T03:07:57.750Z,48.30
2018-04-23T03:08:57.786Z,49.60
2018-04-23T03:09:57.723Z,48.90
2018-04-23T03:10:57.713Z,49.50
2018-04-23T03:11:57.692Z,50.60
2018-04-23T03:12:57.783Z,50.80
2018-04-23T03:13:57.670Z,51.00
2018-04-23T03:14:57.662Z,49.50
2018-04-23T03:15:57.642Z,51.10
2018-04-23T03:16:57.678Z,49.70
2018-04-23T03:17:57.619Z,51.10
2018-04-23T03:18:57.612Z,51.10
2018-04-23T03:19:57.591Z,53.40
2018-04-23T03:20:57.582Z,52.20
2018-04-23T03:21:57.567Z,53.00
2018-04-23T03:22:57.601Z,51.70
2018-04-23T03:23:57.547Z,53.70
2018-04-23T03:24:57.527Z,51.80
2018-04-23T03:25:57.522Z,53.40
2018-04-23T03:26:57.502Z,51.00
2018-04-23T03:27:57.496Z,52.40
2018-04-23T03:28:57.483Z,52.60
2018-04-23T03:29:57.471Z,53.00
2018-04-23T03:30:57.455Z,52.50
2018-04-23T03:31:57.444Z,51.20
2018-04-23T03:32:57.432Z,51.20
2018-04-23T03:33:57.420Z,52.10
2018-04-23T03:34:57.402Z,50.80
2018-04-23T03:35:57.396Z,50.40
2018-04-23T03:36:57.382Z,50.80
2018-04-23T03:37:57.373Z,46.20
2018-04-23T03:38:57.350Z,46.00
2018-04-23T03:39:57.343Z,46.30
2018-04-23T03:40:57.336Z,46.80
2018-04-23T03:41:57.314Z,44.00
2018-04-23T03:42:57.303Z,43.20
2018-04-23T03:43:57.287Z,40.80
2018-04-23T03:44:57.272Z,41.20
2018-04-23T03:45:57.259Z,41.90
2018-04-23T03:46:57.251Z,40.70
2018-04-23T03:47:57.245Z,38.40
2018-04-23T03:48:57.222Z,38.70
2018-04-23T03:49:57.213Z,39.90
2018-04-23T03:50:57.202Z,37.90
2018-04-23T03:51:57.183Z,36.50
2018-04-23T03:52:57.170Z,35.90
2018-04-23T03:53:57.158Z,37.20
2018-04-23T03:54:57.143Z,34.80
2018-04-23T03:55:57.132Z,34.70
2018-04-23T03:56:57.121Z,35.60
2018-04-23T03:57:57.111Z,35.30
2018-04-23T03:58:57.093Z,35.10
2018-04-23T03:59:57.082Z,33.70
2018-04-23T04:00:57.068Z,34.90
2018-04-23T04:01:57.052Z,34.60
2018-04-23T04:02:57.044Z,34.60
2018-04-23T04:03:57.032Z,34.30
2018-04-23T04:04:57.017Z,34.20
2018-04-23T04:05:57.001Z,33.20
2018-04-23T04:06:56.992Z,33.50
2018-04-23T04:07:56.976Z,34.30
2018-04-23T04:08:56.962Z,33.70
2018-04-23T04:09:56.952Z,34.10
2018-04-23T04:10:56.939Z,34.20
2018-04-23T04:11:56.922Z,34.40
2018-04-23T04:12:56.912Z,33.70
2018-04-23T04:13:56.902Z,33.90
2018-04-23T04:14:56.892Z,36.10
2018-04-23T04:15:56.874Z,34.50
2018-04-23T04:16:56.894Z,35.70
2018-04-23T04:17:56.854Z,36.00
2018-04-23T04:18:56.838Z,36.10
2018-04-23T04:19:56.823Z,36.30
2018-04-23T04:20:56.812Z,37.10
2018-04-23T04:21:56.796Z,35.50
2018-04-23T04:22:56.783Z,38.00
2018-04-23T04:23:56.774Z,37.20
2018-04-23T04:24:56.758Z,37.30
2018-04-23T04:25:56.753Z,36.60
2018-04-23T04:26:56.733Z,36.90
2018-04-23T04:27:56.724Z,37.20
2018-04-23T04:28:56.704Z,36.20
2018-04-23T04:29:56.692Z,37.20
2018-04-23T04:30:56.681Z,36.30
2018-04-23T04:31:56.667Z,38.30
2018-04-23T04:32:56.652Z,38.00
2018-04-23T04:33:56.654Z,38.30
2018-04-23T04:34:56.632Z,37.80
2018-04-23T04:35:56.614Z,39.30
2018-04-23T04:36:56.602Z,37.60
2018-04-23T04:37:56.595Z,38.60
2018-04-23T04:38:56.572Z,36.20
2018-04-23T04:39:56.569Z,37.40
2018-04-23T04:40:56.552Z,36.10
2018-04-23T04:41:56.540Z,37.40
2018-04-23T04:42:56.521Z,33.80
2018-04-23T04:43:56.564Z,35.60
2018-04-23T04:44:56.507Z,34.70
2018-04-23T04:45:56.534Z,34.20
2018-04-23T04:46:56.474Z,32.50
2018-04-23T04:47:56.458Z,31.70
2018-04-23T04:48:56.484Z,33.30
2018-04-23T04:49:56.436Z,32.20
2018-04-23T04:50:56.428Z,31.20
2018-04-23T04:51:56.409Z,30.20
2018-04-23T04:52:56.397Z,30.20
2018-04-23T04:53:56.383Z,27.90
2018-04-23T04:54:56.367Z,30.10
2018-04-23T04:55:56.353Z,26.30
2018-04-23T04:56:56.342Z,27.40
2018-04-23T04:57:56.326Z,28.40
2018-04-23T04:58:56.311Z,26.30
2018-04-23T04:59:56.297Z,27.60
2018-04-23T05:00:56.288Z,26.80
2018-04-23T05:01:56.271Z,26.10
2018-04-23T05:02:56.256Z,27.10
2018-04-23T05:03:56.251Z,26.90
2018-04-23T05:04:56.234Z,25.10
2018-04-23T05:05:56.278Z,26.30
2018-04-23T05:06:56.214Z,25.70
2018-04-23T05:07:56.192Z,27.00
2018-04-23T05:08:56.193Z,27.00
2018-04-23T05:09:56.175Z,27.20
2018-04-23T05:10:56.152Z,27.90
2018-04-23T05:11:56.142Z,27.80
2018-04-23T05:12:56.131Z,27.30
2018-04-23T05:13:56.113Z,27.70
2018-04-23T05:14:56.099Z,27.90
2018-04-23T05:15:56.099Z,28.60
2018-04-23T05:16:56.081Z,26.70
2018-04-23T05:17:56.062Z,27.90
2018-04-23T05:18:56.050Z,28.10
2018-04-23T05:19:56.044Z,28.40
2018-04-23T05:20:56.020Z,26.90
2018-04-23T05:21:56.008Z,26.40
2018-04-23T05:22:56.006Z,27.00
2018-04-23T05:23:56.017Z,26.60
2018-04-23T05:24:55.969Z,25.10
2018-04-23T05:25:55.963Z,27.40
2018-04-23T05:26:55.965Z,26.00
2018-04-23T05:27:55.933Z,25.90
2018-04-23T05:28:55.924Z,26.40
2018-04-23T05:29:55.937Z,25.70
2018-04-23T05:30:55.891Z,25.10
2018-04-23T05:31:55.886Z,26.20
2018-04-23T05:32:55.902Z,25.10
2018-04-23T05:33:55.851Z,25.40
2018-04-23T05:34:55.838Z,25.20
2018-04-23T05:35:55.836Z,24.30
2018-04-23T05:36:55.813Z,25.40
2018-04-23T05:37:55.812Z,23.60
2018-04-23T05:38:55.892Z,23.00
2018-04-23T05:39:55.774Z,23.40
2018-04-23T05:40:55.812Z,21.70
2018-04-23T05:41:55.750Z,23.10
2018-04-23T05:42:55.745Z,23.00
2018-04-23T05:43:55.746Z,23.60
2018-04-23T05:44:55.721Z,22.80
2018-04-23T05:45:55.707Z,21.30
2018-04-23T05:46:55.687Z,21.20
2018-04-23T05:47:55.672Z,21.90
2018-04-23T05:48:55.663Z,20.80
2018-04-23T05:49:55.655Z,21.50
2018-04-23T05:50:55.634Z,21.10
2018-04-23T05:51:55.626Z,21.20
2018-04-23T05:52:55.613Z,20.50
2018-04-23T05:53:55.600Z,20.00
2018-04-23T05:54:55.595Z,19.50
2018-04-23T05:55:55.570Z,19.70
2018-04-23T05:56:55.558Z,20.30
2018-04-23T05:57:55.555Z,19.90
2018-04-23T05:58:55.538Z,19.00
2018-04-23T05:59:55.527Z,19.30
2018-04-23T06:00:55.508Z,18.90
2018-04-23T06:01:55.497Z,18.80
2018-04-23T06:02:55.494Z,19.50
2018-04-23T06:03:55.471Z,19.00
2018-04-23T06:04:55.469Z,18.10
2018-04-23T06:05:55.449Z,18.50
2018-04-23T06:06:55.432Z,19.00
2018-04-23T06:07:55.420Z,19.40
2018-04-23T06:08:55.456Z,18.70
2018-04-23T06:09:55.402Z,19.00
2018-04-23T06:10:55.385Z,19.10
2018-04-23T06:11:55.373Z,17.00
2018-04-23T06:12:55.359Z,19.50
2018-04-23T06:13:55.349Z,18.70
2018-04-23T06:14:55.333Z,19.20
2018-04-23T06:15:55.322Z,18.40
2018-04-23T06:16:55.310Z,19.10
2018-04-23T06:17:55.291Z,17.10
2018-04-23T06:18:55.276Z,18.50
2018-04-23T06:19:55.274Z,18.80
2018-04-23T06:20:55.257Z,19.00
2018-04-23T06:21:55.239Z,18.10
2018-04-23T06:22:55.230Z,17.50
2018-04-23T06:23:55.223Z,18.40
2018-04-23T06:24:55.202Z,18.70
2018-04-23T06:25:55.190Z,18.20
2018-04-23T06:26:55.194Z,18.20
2018-04-23T06:27:55.173Z,18.80
2018-04-23T06:28:55.153Z,18.80
2018-04-23T06:29:55.146Z,17.00
2018-04-23T06:30:55.137Z,17.70
2018-04-23T06:31:55.119Z,16.40
2018-04-23T06:32:55.101Z,17.10
2018-04-23T06:33:55.090Z,17.20
2018-04-23T06:34:55.076Z,16.90
2018-04-23T06:35:55.064Z,17.10
2018-04-23T06:36:55.055Z,16.90
2018-04-23T06:37:55.043Z,17.40
2018-04-23T06:38:55.030Z,17.10
2018-04-23T06:39:55.017Z,16.20
2018-04-23T06:40:55.004Z,16.40
2018-04-23T06:41:54.991Z,15.80
2018-04-23T06:42:54.983Z,16.00
2018-04-23T06:43:54.966Z,17.10
2018-04-23T06:44:54.956Z,15.50
2018-04-23T06:45:54.944Z,15.90
2018-04-23T06:46:54.936Z,17.00
2018-04-23T06:47:54.922Z,16.30
2018-04-23T06:48:54.904Z,17.10
2018-04-23T06:49:54.894Z,17.00
2018-04-23T06:50:54.878Z,16.90
2018-04-23T06:51:54.924Z,16.70
2018-04-23T06:52:54.855Z,16.00
2018-04-23T06:53:54.841Z,15.90
2018-04-23T06:54:54.830Z,15.60
2018-04-23T06:55:54.917Z,15.10
2018-04-23T06:56:54.806Z,15.90
2018-04-23T06:57:54.949Z,15.90
2018-04-23T06:58:54.779Z,15.30
2018-04-23T06:59:54.821Z,15.00
2018-04-23T07:00:54.757Z,15.10
2018-04-23T07:01:54.804Z,16.00
2018-04-23T07:02:54.731Z,15.10
2018-04-23T07:03:54.765Z,15.30
2018-04-23T07:04:54.731Z,14.90
2018-04-23T07:05:54.718Z,15.50
2018-04-23T07:06:54.679Z,15.80
2018-04-23T07:07:54.719Z,14.90
2018-04-23T07:08:54.659Z,14.90
2018-04-23T07:09:54.651Z,14.80
2018-04-23T07:10:54.633Z,14.60
2018-04-23T07:11:54.616Z,14.90
2018-04-23T07:12:54.609Z,14.20
2018-04-23T07:13:54.591Z,15.30
2018-04-23T07:14:54.580Z,14.50
2018-04-23T07:15:54.577Z,15.30
2018-04-23T07:16:54.560Z,15.50
2018-04-23T07:17:54.550Z,14.60
2018-04-23T07:18:54.532Z,14.20
2018-04-23T07:19:54.520Z,14.70
2018-04-23T07:20:54.508Z,15.40
2018-04-23T07:21:54.502Z,14.90
2018-04-23T07:22:54.484Z,15.10
2018-04-23T07:23:54.476Z,14.20
2018-04-23T07:24:54.460Z,14.70
2018-04-23T07:25:54.452Z,13.30
2018-04-23T07:26:54.441Z,14.60
2018-04-23T07:27:54.431Z,13.30
2018-04-23T07:28:54.421Z,14.20
2018-04-23T07:29:54.411Z,14.20
2018-04-23T07:30:54.402Z,14.50
2018-04-23T07:31:54.399Z,13.50
2018-04-23T07:32:54.384Z,13.20
2018-04-23T07:33:54.374Z,12.90
2018-04-23T07:34:54.427Z,13.20
2018-04-23T07:35:54.361Z,13.50
2018-04-23T07:36:54.352Z,13.20
2018-04-23T07:37:54.346Z,12.30
2018-04-23T07:38:54.342Z,13.00
2018-04-23T07:39:54.340Z,14.00
2018-04-23T07:40:54.330Z,12.30
2018-04-23T07:41:54.323Z,12.00
2018-04-23T07:42:54.322Z,12.00
2018-04-23T07:43:54.313Z,11.60
2018-04-23T07:44:54.310Z,12.10
2018-04-23T07:45:54.308Z,12.20
2018-04-23T07:46:54.402Z,11.90
2018-04-23T07:47:54.358Z,11.90
2018-04-23T07:48:54.293Z,12.10
2018-04-23T07:49:54.293Z,11.90
2018-04-23T07:50:54.292Z,11.30
2018-04-23T07:51:54.302Z,11.50
2018-04-23T07:52:54.282Z,12.20
2018-04-23T07:53:54.282Z,11.80
2018-04-23T07:54:54.279Z,12.00
2018-04-23T07:55:54.283Z,11.10
2018-04-23T07:56:54.280Z,11.70
2018-04-23T07:57:54.278Z,11.20
2018-04-23T07:58:54.281Z,11.10
2018-04-23T07:59:54.285Z,11.00
2018-04-23T08:00:54.293Z,10.40
2018-04-23T08:01:54.281Z,11.80
2018-04-23T08:02:54.282Z,11.30
2018-04-23T08:03:54.282Z,11.30
2018-04-23T08:04:54.282Z,11.40
2018-04-23T08:05:54.291Z,10.90
2018-04-23T08:06:54.286Z,10.60
2018-04-23T08:07:54.293Z,10.40
2018-04-23T08:08:54.282Z,10.90
2018-04-23T08:09:54.352Z,10.90
2018-04-23T08:10:54.288Z,10.50
2018-04-23T08:11:54.301Z,11.40
2018-04-23T08:12:54.294Z,10.40
2018-04-23T08:13:54.291Z,10.30
2018-04-23T08:14:54.291Z,11.00
2018-04-23T08:15:54.300Z,9.80
2018-04-23T08:16:54.293Z,10.10
2018-04-23T08:17:54.299Z,9.60
2018-04-23T08:18:54.299Z,10.10
2018-04-23T08:19:54.299Z,8.90
2018-04-23T08:20:54.311Z,10.40
2018-04-23T08:21:54.301Z,9.00
2018-04-23T08:22:54.307Z,10.10
2018-04-23T08:23:54.307Z,9.20
2018-04-23T08:24:54.310Z,9.60
2018-04-23T08:25:54.310Z,8.80
2018-04-23T08:26:54.310Z,9.00
2018-04-23T08:27:54.316Z,8.80
2018-04-23T08:28:54.315Z,8.60
2018-04-23T08:29:54.316Z,8.90
2018-04-23T08:30:54.327Z,8.40
2018-04-23T08:31:54.336Z,9.30
2018-04-23T08:32:54.318Z,9.00
2018-04-23T08:33:54.322Z,9.30
2018-04-23T08:34:54.321Z,9.00
2018-04-23T08:35:54.333Z,9.00
2018-04-23T08:36:54.329Z,9.80
2018-04-23T08:37:54.329Z,10.10
2018-04-23T08:38:54.326Z,9.80
2018-04-23T08:39:54.332Z,10.00
2018-04-23T08:40:54.334Z,9.50
2018-04-23T08:41:54.332Z,10.00
2018-04-23T08:42:54.333Z,9.10
2018-04-23T08:43:54.337Z,9.10
2018-04-23T08:44:54.337Z,9.20
2018-04-23T08:45:54.333Z,9.40
2018-04-23T08:46:54.333Z,9.50
2018-04-23T08:47:54.334Z,9.80
2018-04-23T08:48:54.354Z,9.40
2018-04-23T08:49:54.334Z,9.10
2018-04-23T08:50:54.334Z,9.70
2018-04-23T08:51:54.333Z,9.40
2018-04-23T08:52:54.335Z,8.60
2018-04-23T08:53:54.334Z,8.70
2018-04-23T08:54:54.335Z,8.90
2018-04-23T08:55:54.364Z,9.20
2018-04-23T08:56:54.329Z,8.60
2018-04-23T08:57:54.330Z,8.90
2018-04-23T08:58:54.332Z,8.90
2018-04-23T08:59:54.332Z,9.30
2018-04-23T09:00:54.332Z,8.90
2018-04-23T09:01:54.335Z,8.30
2018-04-23T09:02:54.339Z,8.20
2018-04-23T09:03:54.336Z,7.90
2018-04-23T09:04:54.342Z,8.00
2018-04-23T09:05:54.336Z,7.50
2018-04-23T09:06:54.347Z,8.20
2018-04-23T09:07:54.336Z,8.10
2018-04-23T09:08:54.334Z,7.70
2018-04-23T09:09:54.341Z,8.40
2018-04-23T09:10:54.342Z,7.90
2018-04-23T09:11:54.336Z,7.90
2018-04-23T09:12:54.337Z,7.50
2018-04-23T09:13:54.345Z,8.20
2018-04-23T09:14:54.344Z,7.70
2018-04-23T09:15:54.347Z,7.60
2018-04-23T09:16:54.344Z,7.90
2018-04-23T09:17:54.403Z,7.60
2018-04-23T09:18:54.352Z,8.40
2018-04-23T09:19:54.348Z,8.30
2018-04-23T09:20:54.344Z,7.40
2018-04-23T09:21:54.344Z,7.20
2018-04-23T09:22:54.343Z,7.20
2018-04-23T09:23:54.339Z,7.90
2018-04-23T09:24:54.394Z,7.70
2018-04-23T09:25:54.340Z,7.80
2018-04-23T09:26:54.349Z,7.80
2018-04-23T09:27:54.343Z,7.70
2018-04-23T09:28:54.334Z,7.80
2018-04-23T09:29:54.330Z,8.20
2018-04-23T09:30:54.331Z,8.90
2018-04-23T09:31:54.329Z,8.30
2018-04-23T09:32:54.327Z,8.20
2018-04-23T09:33:54.323Z,7.70
2018-04-23T09:34:54.319Z,7.80
2018-04-23T09:35:54.307Z,7.70
2018-04-23T09:36:54.308Z,8.10
2018-04-23T09:37:54.301Z,8.30
2018-04-23T09:38:54.328Z,7.70
2018-04-23T09:39:54.292Z,7.40
2018-04-23T09:40:54.286Z,8.40
2018-04-23T09:41:54.282Z,8.00
2018-04-23T09:42:54.275Z,8.50
2018-04-23T09:43:54.271Z,8.30
2018-04-23T09:44:54.264Z,7.90
2018-04-23T09:45:54.257Z,8.30
2018-04-23T09:46:54.264Z,7.70
2018-04-23T09:47:54.253Z,7.90
2018-04-23T09:48:54.241Z,7.70
2018-04-23T09:49:54.235Z,7.50
2018-04-23T09:50:54.227Z,7.70
2018-04-23T09:51:54.221Z,7.50
2018-04-23T09:52:54.211Z,7.60
2018-04-23T09:53:54.212Z,7.70
2018-04-23T09:54:54.201Z,7.20
2018-04-23T09:55:54.194Z,7.70
2018-04-23T09:56:54.187Z,7.00
2018-04-23T09:57:54.181Z,7.20
2018-04-23T09:58:54.181Z,7.20
2018-04-23T09:59:54.168Z,7.60
2018-04-23T10:00:54.161Z,6.90
2018-04-23T10:01:54.155Z,7.90
2018-04-23T10:02:54.151Z,7.40
2018-04-23T10:03:54.142Z,7.60
2018-04-23T10:04:54.134Z,7.50
2018-04-23T10:05:54.134Z,7.30
2018-04-23T10:06:54.121Z,7.10
2018-04-23T10:07:54.120Z,7.30
2018-04-23T10:08:54.112Z,7.20
2018-04-23T10:09:54.103Z,7.50
2018-04-23T10:10:54.096Z,7.40
2018-04-23T10:11:54.088Z,7.10
2018-04-23T10:12:54.088Z,7.10
2018-04-23T10:13:54.078Z,7.20
2018-04-23T10:14:54.071Z,6.90
2018-04-23T10:15:54.061Z,6.40
2018-04-23T10:16:54.064Z,6.30
2018-04-23T10:17:54.050Z,6.60
2018-04-23T10:18:54.042Z,6.30
2018-04-23T10:19:54.045Z,7.20
2018-04-23T10:20:54.032Z,6.50
2018-04-23T10:21:54.032Z,6.30
2018-04-23T10:22:54.021Z,7.00
2018-04-23T10:23:54.014Z,6.50
2018-04-23T10:24:54.008Z,7.00
2018-04-23T10:25:54.003Z,7.70
2018-04-23T10:26:53.996Z,7.20
2018-04-23T10:27:53.984Z,7.00
2018-04-23T10:28:53.983Z,7.80
2018-04-23T10:29:53.972Z,7.40
2018-04-23T10:30:53.965Z,7.40
2018-04-23T10:31:53.964Z,7.50
2018-04-23T10:32:53.950Z,7.60
2018-04-23T10:33:53.944Z,7.40
2018-04-23T10:34:53.948Z,7.20
2018-04-23T10:35:53.927Z,7.10
2018-04-23T10:36:53.924Z,6.90
2018-04-23T10:37:53.921Z,6.50
2018-04-23T10:38:53.909Z,6.70
2018-04-23T10:39:53.912Z,6.40
2018-04-23T10:40:53.903Z,6.40
2018-04-23T10:41:53.893Z,6.60
2018-04-23T10:42:53.984Z,6.00
2018-04-23T10:43:53.873Z,5.80
2018-04-23T10:44:53.926Z,6.80
2018-04-23T10:45:53.864Z,7.00
2018-04-23T10:46:53.901Z,6.70
2018-04-23T10:47:53.843Z,7.60
2018-04-23T10:48:53.837Z,6.90
2018-04-23T10:49:53.829Z,8.30
2018-04-23T10:50:53.822Z,7.10
2018-04-23T10:51:53.813Z,6.90
2018-04-23T10:52:53.813Z,7.50
2018-04-23T10:53:53.800Z,6.20
2018-04-23T10:54:53.793Z,6.20
2018-04-23T10:55:53.782Z,6.10
2018-04-23T10:56:53.782Z,6.90
2018-04-23T10:57:53.774Z,6.80
2018-04-23T10:58:53.764Z,7.10
2018-04-23T10:59:53.753Z,6.40
2018-04-23T11:00:53.753Z,6.70
2018-04-23T11:01:53.800Z,6.10
2018-04-23T11:02:53.742Z,6.80
2018-04-23T11:03:53.730Z,7.10
2018-04-23T11:04:53.723Z,6.90
2018-04-23T11:05:53.713Z,6.70
2018-04-23T11:06:53.703Z,6.50
2018-04-23T11:07:53.701Z,7.20
2018-04-23T11:08:53.698Z,7.60
2018-04-23T11:09:53.688Z,7.60
2018-04-23T11:10:53.684Z,7.10
2018-04-23T11:11:53.672Z,6.80
2018-04-23T11:12:53.662Z,7.30
2018-04-23T11:13:53.656Z,7.30
2018-04-23T11:14:53.652Z,7.50
2018-04-23T11:15:53.644Z,7.20
2018-04-23T11:16:53.640Z,7.00
2018-04-23T11:17:53.700Z,7.10
2018-04-23T11:18:53.613Z,7.30
2018-04-23T11:19:53.698Z,7.50
2018-04-23T11:20:53.602Z,7.80
2018-04-23T11:21:53.593Z,8.20
2018-04-23T11:22:53.582Z,7.30
2018-04-23T11:23:53.672Z,7.50
2018-04-23T11:24:53.578Z,6.70
2018-04-23T11:25:53.562Z,7.40
2018-04-23T11:26:53.564Z,6.90
2018-04-23T11:27:53.542Z,6.30
2018-04-23T11:28:53.537Z,6.70
2018-04-23T11:29:53.534Z,6.10
2018-04-23T11:30:53.517Z,6.40
2018-04-23T11:31:53.508Z,6.20
2018-04-23T11:32:53.503Z,6.20
2018-04-23T11:33:53.494Z,6.70
2018-04-23T11:34:53.495Z,5.80
2018-04-23T11:35:53.482Z,6.30
2018-04-23T11:36:53.472Z,5.60
2018-04-23T11:37:53.466Z,5.60
2018-04-23T11:38:53.455Z,5.90
2018-04-23T11:39:53.447Z,5.20
2018-04-23T11:40:53.443Z,5.40
2018-04-23T11:41:53.429Z,6.10
2018-04-23T11:42:53.423Z,6.00
2018-04-23T11:43:53.413Z,5.70
2018-04-23T11:44:53.410Z,6.00
2018-04-23T11:45:53.397Z,6.10
2018-04-23T11:46:53.401Z,6.70
2018-04-23T11:47:53.393Z,6.80
2018-04-23T11:48:53.375Z,6.40
2018-04-23T11:49:53.367Z,6.70
2018-04-23T11:50:53.363Z,6.70
2018-04-23T11:51:53.361Z,6.50
2018-04-23T11:52:53.342Z,6.50
2018-04-23T11:53:53.337Z,6.80
2018-04-23T11:54:53.332Z,6.50
2018-04-23T11:55:53.325Z,6.50
2018-04-23T11:56:53.316Z,6.90
2018-04-23T11:57:53.307Z,6.80
2018-04-23T11:58:53.304Z,7.10
2018-04-23T11:59:53.294Z,7.60
2018-04-23T12:00:53.297Z,6.90
2018-04-23T12:01:53.282Z,6.40
2018-04-23T12:02:53.269Z,6.60
2018-04-23T12:03:53.264Z,6.80
2018-04-23T12:04:53.263Z,5.90
2018-04-23T12:05:53.262Z,5.90
2018-04-23T12:06:53.247Z,6.10
2018-04-23T12:07:53.234Z,7.30
2018-04-23T12:08:53.227Z,7.20
2018-04-23T12:09:53.223Z,6.70
2018-04-23T12:10:53.232Z,7.50
2018-04-23T12:11:53.214Z,7.30
2018-04-23T12:12:53.203Z,6.50
2018-04-23T12:13:53.194Z,7.40
2018-04-23T12:14:53.184Z,8.10
2018-04-23T12:15:53.172Z,7.80
2018-04-23T12:16:53.174Z,8.20
2018-04-23T12:17:53.171Z,7.30
2018-04-23T12:18:53.158Z,7.00
2018-04-23T12:19:53.147Z,7.20
2018-04-23T12:20:53.145Z,7.60
2018-04-23T12:21:53.135Z,7.40
2018-04-23T12:22:53.122Z,7.30
2018-04-23T12:23:53.123Z,7.40
2018-04-23T12:24:53.104Z,8.40
2018-04-23T12:25:53.105Z,8.10
2018-04-23T12:26:53.094Z,8.00
2018-04-23T12:27:53.083Z,7.30
2018-04-23T12:28:53.085Z,6.80
2018-04-23T12:29:53.077Z,7.40
2018-04-23T12:30:53.063Z,6.40
2018-04-23T12:31:53.058Z,7.30
2018-04-23T12:32:53.044Z,7.00
2018-04-23T12:33:53.045Z,7.90
2018-04-23T12:34:53.038Z,6.60
2018-04-23T12:35:53.034Z,6.90
2018-04-23T12:36:53.017Z,6.80
2018-04-23T12:37:53.010Z,6.60
2018-04-23T12:38:53.003Z,7.00
2018-04-23T12:39:52.999Z,6.80
2018-04-23T12:40:52.997Z,7.10
2018-04-23T12:41:52.984Z,7.20
2018-04-23T12:42:52.971Z,7.00
2018-04-23T12:43:52.968Z,6.90
2018-04-23T12:44:52.957Z,6.40
2018-04-23T12:45:52.975Z,7.00
2018-04-23T12:46:52.950Z,6.20
2018-04-23T12:47:52.942Z,7.20
2018-04-23T12:48:52.923Z,7.00
2018-04-23T12:49:52.914Z,7.80
2018-04-23T12:50:52.909Z,7.30
2018-04-23T12:51:52.904Z,7.80
2018-04-23T12:52:52.908Z,7.60
2018-04-23T12:53:52.892Z,7.40
2018-04-23T12:54:52.879Z,7.60
2018-04-23T12:55:52.873Z,7.50
2018-04-23T12:56:52.863Z,8.00
2018-04-23T12:57:52.854Z,8.10
2018-04-23T12:58:52.841Z,8.20
2018-04-23T12:59:52.837Z,8.60
2018-04-23T13:00:52.833Z,8.20